Time;durP1;ratioP1;P1;durP2;ratioP2;P2;SDS_P1;SDS_P2;PMS_P1;PMS_P2;Temp;Humidity;BMP_temperature;BMP_pressure;BME280_temperature;BME280_humidity;BME280_pressure;Samples;Min_cycle;Max_cycle;Signal;HPM_P1;HPM_P2
2021/01/21 00:01:13;;;;;;;9.57;4.38;;;;;;;-10.90;59.86;100178.06;5050477;28;20476;-65
2021/01/21 00:03:38;;;;;;;9.60;4.75;;;;;;;-10.99;60.18;100160.72;5053797;28;20073;-63
2021/01/21 00:06:04;;;;;;;10.13;4.68;;;;;;;-10.96;59.71;100158.19;5054293;28;20428;-65
2021/01/21 00:08:30;;;;;;;10.35;4.55;;;;;;;-11.21;59.63;100113.03;5053190;28;20060;-63
2021/01/21 00:10:55;;;;;;;11.90;4.60;;;;;;;-11.48;59.73;100052.41;5053284;28;20256;-64
2021/01/21 00:13:21;;;;;;;10.82;4.20;;;;;;;-10.77;59.70;100170.47;5053777;28;20043;-63
2021/01/21 00:15:46;;;;;;;10.15;4.55;;;;;;;-10.65;59.51;100193.03;5053780;28;20120;-64
2021/01/21 00:18:12;;;;;;;7.95;4.03;;;;;;;-10.59;59.29;100195.69;5053235;28;20060;-62
2021/01/21 00:20:37;;;;;;;9.07;4.43;;;;;;;-10.65;58.86;100168.00;5053297;28;20036;-61
2021/01/21 00:23:03;;;;;;;10.40;4.18;;;;;;;-10.60;59.03;100176.72;5053872;28;20037;-63
2021/01/21 00:25:28;;;;;;;12.57;4.70;;;;;;;-10.46;59.10;100182.06;5053188;28;20090;-60
2021/01/21 00:27:54;;;;;;;8.38;3.55;;;;;;;-10.52;59.07;100163.84;5052771;28;20076;-64
2021/01/21 00:30:20;;;;;;;7.15;3.55;;;;;;;-10.41;58.72;100189.84;5053706;28;20090;-64
2021/01/21 00:32:46;;;;;;;9.05;3.95;;;;;;;-10.39;58.75;100176.03;5053645;28;20106;-62
2021/01/21 00:35:13;;;;;;;13.70;4.57;;;;;;;-10.97;58.89;100072.81;5053025;28;20039;-63
2021/01/21 00:37:38;;;;;;;9.20;4.25;;;;;;;-10.32;58.62;100186.47;5053027;28;20049;-57
2021/01/21 00:40:05;;;;;;;8.55;3.70;;;;;;;-10.41;58.50;100161.38;5053670;28;20040;-63
2021/01/21 00:42:30;;;;;;;8.48;3.75;;;;;;;-10.46;58.58;100135.47;5052729;28;20035;-63
2021/01/21 00:44:55;;;;;;;6.88;3.15;;;;;;;-10.24;58.06;100162.38;5052694;28;20041;-62
2021/01/21 00:47:21;;;;;;;8.70;3.72;;;;;;;-10.23;58.44;100153.75;5052595;28;20036;-64
2021/01/21 00:49:46;;;;;;;7.32;3.70;;;;;;;-10.12;58.13;100168.56;5051723;28;20149;-62
2021/01/21 00:52:12;;;;;;;7.53;3.33;;;;;;;-10.24;58.28;100149.44;5053243;28;20048;-64
2021/01/21 00:54:37;;;;;;;11.10;3.92;;;;;;;-10.09;57.91;100153.88;5053160;28;20378;-60
2021/01/21 00:57:03;;;;;;;7.47;3.50;;;;;;;-10.13;57.77;100139.19;5052478;28;20415;-62
2021/01/21 00:59:28;;;;;;;8.98;3.80;;;;;;;-10.18;57.80;100140.88;5052792;28;20033;-63
2021/01/21 01:01:54;;;;;;;4.97;2.78;;;;;;;-10.05;57.54;100130.59;5053275;28;20404;-63
2021/01/21 01:04:19;;;;;;;8.18;3.40;;;;;;;-10.04;57.35;100130.63;5052767;28;20369;-62
2021/01/21 01:06:45;;;;;;;10.25;4.07;;;;;;;-10.02;57.33;100136.69;5052212;28;20040;-63
2021/01/21 01:09:10;;;;;;;7.65;3.58;;;;;;;-10.30;57.35;100084.66;5052584;28;20094;-60
2021/01/21 01:11:36;;;;;;;9.02;4.20;;;;;;;-9.98;57.47;100147.94;5052970;28;20102;-63
2021/01/21 01:14:01;;;;;;;8.57;3.72;;;;;;;-10.10;57.38;100115.03;5051673;28;20040;-63
2021/01/21 01:16:27;;;;;;;7.10;4.00;;;;;;;-10.00;57.29;100116.84;5051059;28;20040;-61
2021/01/21 01:18:52;;;;;;;8.13;3.55;;;;;;;-9.96;56.95;100136.72;5052079;28;20069;-64
2021/01/21 01:21:18;;;;;;;9.77;4.10;;;;;;;-9.99;57.27;100152.25;5052668;28;20409;-62
2021/01/21 01:23:44;;;;;;;8.07;4.20;;;;;;;-10.00;57.23;100134.97;5050311;28;20037;-63
2021/01/21 01:26:10;;;;;;;10.10;3.97;;;;;;;-10.23;56.81;100114.91;5052071;28;20163;-62
2021/01/21 01:28:38;;;;;;;9.40;4.18;;;;;;;-10.07;56.84;100133.19;5051910;28;20405;-63
2021/01/21 01:31:03;;;;;;;7.05;3.38;;;;;;;-10.11;57.28;100129.69;5051842;28;20049;-62
2021/01/21 01:33:29;;;;;;;12.50;4.53;;;;;;;-10.14;57.28;100142.63;5050834;28;20393;-62
2021/01/21 01:35:54;;;;;;;6.95;3.70;;;;;;;-10.16;56.96;100131.38;5051809;28;20423;-63
2021/01/21 01:38:19;;;;;;;8.00;3.35;;;;;;;-10.41;56.92;100075.94;5052110;28;20060;-62
2021/01/21 01:40:45;;;;;;;9.73;4.15;;;;;;;-10.20;56.95;100120.97;5050649;28;20452;-63
2021/01/21 01:43:11;;;;;;;7.35;3.75;;;;;;;-10.26;57.04;100119.19;5051543;28;20037;-63
2021/01/21 01:45:36;;;;;;;9.52;4.55;;;;;;;-10.29;57.11;100107.09;5052272;28;20040;-63
2021/01/21 01:48:03;;;;;;;9.70;3.72;;;;;;;-10.41;57.28;100100.13;5051725;28;20037;-62
2021/01/21 01:50:29;;;;;;;8.27;3.70;;;;;;;-10.40;57.63;100096.66;5051159;28;20079;-62
2021/01/21 01:52:55;;;;;;;10.05;3.90;;;;;;;-10.41;57.12;100096.66;5051796;28;20069;-62
2021/01/21 01:55:21;;;;;;;11.65;4.22;;;;;;;-10.40;56.97;100111.34;5051658;28;20111;-62
2021/01/21 01:57:53;;;;;;;8.80;4.45;;;;;;;-10.93;57.08;100004.75;5051136;28;20133;-61
2021/01/21 02:00:20;;;;;;;7.18;3.75;;;;;;;-10.34;56.82;100111.38;5051986;28;20059;-62
2021/01/21 02:02:49;;;;;;;8.85;4.30;;;;;;;-10.28;56.89;100106.25;5051738;28;20045;-63
2021/01/21 02:05:16;;;;;;;7.80;4.03;;;;;;;-10.50;56.79;100089.66;5050880;28;20033;-62
2021/01/21 02:07:42;;;;;;;10.50;4.30;;;;;;;-10.38;56.50;100099.22;5051667;28;20495;-62
2021/01/21 02:10:08;;;;;;;10.45;4.47;;;;;;;-10.31;56.74;100110.53;5050469;28;20036;-63
2021/01/21 02:12:55;;;;;;;8.32;3.85;;;;;;;-10.30;56.18;100101.91;5050812;28;20424;-63
2021/01/21 02:15:56;;;;;;;10.98;4.20;;;;;;;-10.31;56.25;100095.88;5050838;28;20037;-62
2021/01/21 02:19:07;;;;;;;7.00;3.70;;;;;;;-10.32;56.68;100104.50;5050068;28;20049;-63
2021/01/21 02:22:03;;;;;;;8.73;3.75;;;;;;;-10.38;56.02;100107.00;5049968;28;20131;-62
2021/01/21 02:24:53;;;;;;;8.52;3.58;;;;;;;-10.37;56.21;100100.97;5050643;28;20041;-62
2021/01/21 02:27:19;;;;;;;8.25;3.70;;;;;;;-10.42;56.33;100102.69;5050947;28;20048;-63
2021/01/21 02:29:46;;;;;;;10.38;4.03;;;;;;;-10.43;56.48;100083.72;5051025;28;20041;-60
2021/01/21 02:32:32;;;;;;;11.40;4.03;;;;;;;-10.36;56.01;100094.97;5050891;28;20225;-61
2021/01/21 02:35:11;;;;;;;9.00;3.72;;;;;;;-10.42;55.72;100066.44;5051284;28;20044;-64
2021/01/21 02:37:47;;;;;;;7.95;3.50;;;;;;;-10.34;55.58;100074.25;5051277;28;20037;-62
2021/01/21 02:40:14;;;;;;;7.38;3.42;;;;;;;-10.31;55.19;100085.50;5051124;28;20090;-61
2021/01/21 02:42:47;;;;;;;9.70;3.75;;;;;;;-10.30;54.82;100073.41;5050405;28;20063;-64
2021/01/21 02:45:13;;;;;;;8.63;2.92;;;;;;;-10.28;54.61;100080.34;5051234;28;20113;-63
2021/01/21 02:47:40;;;;;;;8.20;3.85;;;;;;;-10.85;54.95;99986.72;5051194;28;20029;-61
2021/01/21 02:50:06;;;;;;;7.68;2.92;;;;;;;-11.01;55.14;99972.78;5050624;28;20036;-63
2021/01/21 02:52:45;;;;;;;6.95;3.50;;;;;;;-10.44;54.95;100056.09;5049087;28;20401;-62
2021/01/21 02:55:48;;;;;;;6.82;3.40;;;;;;;-10.41;54.88;100066.47;5051215;28;20035;-61
2021/01/21 02:58:35;;;;;;;8.27;3.80;;;;;;;-10.94;55.05;99961.63;5051342;28;20033;-62
2021/01/21 03:01:03;;;;;;;8.25;3.38;;;;;;;-10.39;55.03;100040.56;5050372;28;20033;-62
2021/01/21 03:03:30;;;;;;;10.70;3.72;;;;;;;-10.37;54.76;100051.78;5050091;28;20114;-62
2021/01/21 03:05:58;;;;;;;8.88;3.88;;;;;;;-10.31;54.84;100054.44;5050980;28;20037;-60
2021/01/21 03:08:29;;;;;;;6.65;2.88;;;;;;;-10.43;54.48;100033.66;5050643;28;20043;-61
2021/01/21 03:11:13;;;;;;;8.15;3.35;;;;;;;-10.27;54.78;100047.56;5049900;28;20037;-63
2021/01/21 03:13:43;;;;;;;9.30;3.75;;;;;;;-10.47;54.18;100034.50;5048654;28;20507;-61
2021/01/21 03:16:08;;;;;;;6.40;3.22;;;;;;;-10.34;54.40;100043.19;5050575;28;20182;-64
2021/01/21 03:18:34;;;;;;;7.72;3.53;;;;;;;-10.56;54.38;100011.97;5050184;28;20179;-62
2021/01/21 03:21:00;;;;;;;11.00;3.97;;;;;;;-10.36;54.58;100040.59;5049902;28;20142;-62
2021/01/21 03:23:25;;;;;;;8.43;3.90;;;;;;;-10.37;54.47;100028.50;5048834;28;20033;-61
2021/01/21 03:25:51;;;;;;;7.10;3.47;;;;;;;-10.41;54.35;100038.00;5049521;28;20040;-61
2021/01/21 03:28:16;;;;;;;6.75;3.28;;;;;;;-10.60;54.91;99985.22;5050355;28;20496;-63
2021/01/21 03:30:42;;;;;;;8.90;3.22;;;;;;;-10.43;54.67;100011.25;5049611;28;20063;-62
2021/01/21 03:33:07;;;;;;;7.20;3.45;;;;;;;-10.42;54.80;100012.09;5049847;28;20041;-61
2021/01/21 03:35:33;;;;;;;7.70;3.88;;;;;;;-10.43;54.74;100002.59;5049389;28;20073;-62
2021/01/21 03:37:58;;;;;;;9.07;3.92;;;;;;;-10.48;54.37;99986.16;5049891;28;20382;-63
2021/01/21 03:40:24;;;;;;;7.03;3.78;;;;;;;-10.38;54.50;100006.03;5050054;28;20044;-62
2021/01/21 03:42:49;;;;;;;8.77;3.75;;;;;;;-10.30;54.62;99996.63;5050013;28;20033;-61
2021/01/21 03:45:15;;;;;;;6.45;3.20;;;;;;;-10.98;54.23;99857.28;5049291;28;20033;-63
2021/01/21 03:47:40;;;;;;;11.07;4.15;;;;;;;-10.17;54.19;99991.53;5049883;28;20040;-63
2021/01/21 03:50:07;;;;;;;10.23;3.88;;;;;;;-10.16;53.98;99976.00;5049849;28;20033;-62
2021/01/21 03:52:32;;;;;;;10.27;4.00;;;;;;;-10.15;54.13;99971.69;5049496;28;20469;-62
2021/01/21 03:54:58;;;;;;;9.27;3.63;;;;;;;-10.16;54.02;99957.88;5049552;28;20032;-61
2021/01/21 03:57:23;;;;;;;9.30;3.90;;;;;;;-10.03;53.95;99976.97;5049291;28;20408;-62
2021/01/21 03:59:48;;;;;;;7.93;3.65;;;;;;;-9.97;53.66;99984.75;5049407;28;20110;-55
2021/01/21 04:02:14;;;;;;;7.85;3.72;;;;;;;-10.02;53.64;99938.94;5049175;28;20032;-62
2021/01/21 04:04:39;;;;;;;8.25;3.00;;;;;;;-9.86;53.17;99968.41;5050241;28;20115;-61
2021/01/21 04:07:05;;;;;;;10.85;3.53;;;;;;;-9.90;53.21;99956.28;5049491;28;20116;-62
2021/01/21 04:09:30;;;;;;;9.38;3.88;;;;;;;-10.12;53.27;99933.75;5049000;28;20472;-60
2021/01/21 04:11:56;;;;;;;8.88;4.05;;;;;;;-10.05;53.21;99937.22;5049488;28;20071;-63
2021/01/21 04:14:21;;;;;;;7.85;3.35;;;;;;;-10.12;53.63;99945.84;5049884;28;20074;-61
2021/01/21 04:16:47;;;;;;;7.93;3.45;;;;;;;-10.21;54.01;99936.28;5049765;28;20044;-61
2021/01/21 04:19:12;;;;;;;9.45;3.80;;;;;;;-10.35;53.91;99923.25;5049343;28;20044;-59
2021/01/21 04:21:38;;;;;;;9.30;4.00;;;;;;;-10.36;54.29;99937.06;5049856;28;20029;-57
2021/01/21 04:24:03;;;;;;;8.43;3.55;;;;;;;-10.62;54.21;99885.16;5049794;28;20457;-62
2021/01/21 04:26:30;;;;;;;12.98;4.00;;;;;;;-10.43;54.42;99918.06;5049207;28;20094;-61
2021/01/21 04:28:55;;;;;;;6.40;3.05;;;;;;;-10.74;54.12;99885.94;5047694;28;20191;-60
2021/01/21 04:31:21;;;;;;;8.50;3.85;;;;;;;-11.20;54.41;99807.16;5049747;28;20043;-54
2021/01/21 04:33:47;;;;;;;10.90;3.92;;;;;;;-10.88;54.91;99889.25;5049853;28;20115;-62
2021/01/21 04:36:13;;;;;;;10.02;4.20;;;;;;;-10.93;55.06;99875.44;5049207;28;20025;-62
2021/01/21 04:38:38;;;;;;;10.40;4.13;;;;;;;-10.71;55.11;99911.81;5049260;28;20170;-61
2021/01/21 04:41:04;;;;;;;9.48;3.92;;;;;;;-10.75;54.93;99912.66;5049645;28;20037;-61
2021/01/21 04:43:30;;;;;;;7.20;3.35;;;;;;;-10.92;55.46;99884.09;5049948;28;20045;-63
2021/01/21 04:45:55;;;;;;;8.88;4.13;;;;;;;-10.96;55.62;99889.22;5048801;28;20078;-62
2021/01/21 04:48:21;;;;;;;9.15;4.18;;;;;;;-10.87;55.63;99897.91;5050411;28;20578;-60
2021/01/21 04:50:48;;;;;;;9.55;3.80;;;;;;;-10.79;55.60;99911.75;5053417;28;20390;-62
2021/01/21 04:53:16;;;;;;;7.60;3.70;;;;;;;-10.75;55.81;99907.47;5053212;28;20481;-60
2021/01/21 04:55:49;;;;;;;7.13;3.55;;;;;;;-10.75;55.56;99910.06;5052502;28;20029;-61
2021/01/21 04:58:25;;;;;;;9.55;3.78;;;;;;;-10.74;55.31;99888.50;5052238;28;20043;-62
2021/01/21 05:00:52;;;;;;;10.80;3.85;;;;;;;-10.74;55.73;99875.59;5053276;28;20036;-63
2021/01/21 05:03:18;;;;;;;10.80;4.05;;;;;;;-10.61;55.39;99890.34;5053068;28;20037;-63
2021/01/21 05:05:44;;;;;;;9.68;4.00;;;;;;;-10.52;55.25;99894.69;5052282;28;20051;-61
2021/01/21 05:08:09;;;;;;;9.90;4.05;;;;;;;-10.38;55.17;99884.38;5052447;28;20079;-63
2021/01/21 05:10:35;;;;;;;8.77;3.42;;;;;;;-10.34;54.74;99878.41;5052717;28;20043;-62
2021/01/21 05:13:01;;;;;;;10.00;4.15;;;;;;;-10.17;54.23;99891.41;5052699;28;20087;-63
2021/01/21 05:15:27;;;;;;;7.97;3.67;;;;;;;-10.08;54.12;99885.41;5052331;28;20638;-62
2021/01/21 05:17:53;;;;;;;7.90;3.92;;;;;;;-10.02;54.07;99877.69;5052703;28;20033;-63
2021/01/21 05:20:25;;;;;;;7.95;3.63;;;;;;;-9.91;53.80;99877.72;5052185;28;20037;-65
2021/01/21 05:23:01;;;;;;;7.03;3.83;;;;;;;-9.78;53.52;99870.84;5051304;28;20127;-61
2021/01/21 05:25:27;;;;;;;10.63;4.18;;;;;;;-9.75;53.04;99863.09;5050634;28;20040;-61
2021/01/21 05:28:03;;;;;;;8.80;3.53;;;;;;;-9.73;52.96;99842.38;5051822;28;20064;-64
2021/01/21 05:30:30;;;;;;;7.97;3.75;;;;;;;-9.42;53.06;99857.97;5052030;28;20053;-62
2021/01/21 05:32:57;;;;;;;9.70;4.80;;;;;;;-9.35;52.47;99866.63;5051706;28;20045;-62
2021/01/21 05:35:24;;;;;;;8.70;3.88;;;;;;;-9.26;52.56;99854.53;5051665;28;20033;-62
2021/01/21 05:37:56;;;;;;;7.72;4.13;;;;;;;-9.13;52.21;99852.81;5051827;28;20167;-64
2021/01/21 05:40:29;;;;;;;10.73;3.97;;;;;;;-9.00;52.18;99843.31;5050282;28;20033;-67
2021/01/21 05:42:55;;;;;;;5.93;2.90;;;;;;;-8.88;51.77;99828.56;5051984;28;20592;-62
2021/01/21 05:45:22;;;;;;;6.97;3.10;;;;;;;-8.76;51.83;99830.28;5052166;28;20119;-63
2021/01/21 05:47:58;;;;;;;7.68;3.38;;;;;;;-8.75;51.43;99817.31;5050251;28;20044;-61
2021/01/21 05:50:25;;;;;;;9.60;3.65;;;;;;;-9.13;50.98;99728.31;5051879;28;20044;-62
2021/01/21 05:52:53;;;;;;;8.95;3.75;;;;;;;-8.95;50.82;99752.47;5052062;28;20047;-64
2021/01/21 05:55:27;;;;;;;6.97;3.60;;;;;;;-8.42;50.60;99825.84;5051378;28;20041;-64
2021/01/21 05:57:55;;;;;;;9.93;3.78;;;;;;;-8.44;50.80;99800.75;5051512;28;20432;-63
2021/01/21 06:00:25;;;;;;;7.30;3.47;;;;;;;-8.80;50.71;99723.91;5051966;28;20481;-65
2021/01/21 06:02:52;;;;;;;8.02;3.75;;;;;;;-8.27;50.59;99798.13;5051141;28;20153;-63
2021/01/21 06:05:23;;;;;;;8.63;4.10;;;;;;;-8.24;50.33;99777.31;5051429;28;20048;-63
2021/01/21 06:07:50;;;;;;;6.65;3.13;;;;;;;-8.73;50.17;99690.13;5051971;28;20029;-64
2021/01/21 06:10:17;;;;;;;6.72;3.28;;;;;;;-8.10;50.45;99770.31;5051578;28;20048;-62
2021/01/21 06:12:51;;;;;;;7.90;3.38;;;;;;;-8.11;49.85;99780.72;5051045;28;20048;-64
2021/01/21 06:15:18;;;;;;;6.80;3.17;;;;;;;-8.08;50.04;99771.19;5051043;28;20028;-62
2021/01/21 06:17:46;;;;;;;7.10;3.38;;;;;;;-7.95;49.93;99795.38;5051801;28;20033;-62
2021/01/21 06:20:13;;;;;;;6.65;3.25;;;;;;;-8.30;49.80;99726.25;5051016;28;20037;-63
2021/01/21 06:22:47;;;;;;;7.45;3.17;;;;;;;-7.89;49.08;99770.22;5049987;28;20044;-62
2021/01/21 06:25:19;;;;;;;6.05;3.17;;;;;;;-8.34;49.10;99689.91;5048672;28;20036;-62
2021/01/21 06:27:46;;;;;;;8.23;3.40;;;;;;;-7.81;49.55;99774.50;5050924;28;20087;-62
2021/01/21 06:30:16;;;;;;;9.55;3.72;;;;;;;-8.33;48.95;99656.16;5050726;28;20049;-62
2021/01/21 06:32:56;;;;;;;5.88;3.05;;;;;;;-8.16;48.53;99675.97;5050480;28;20045;-64
2021/01/21 06:35:23;;;;;;;6.93;3.38;;;;;;;-7.69;48.81;99744.06;5050441;28;20036;-63
2021/01/21 06:37:51;;;;;;;8.52;3.60;;;;;;;-7.65;48.75;99751.84;5051167;28;20032;-62
2021/01/21 06:40:20;;;;;;;8.93;4.00;;;;;;;-7.76;48.70;99721.59;5050424;28;20405;-63
2021/01/21 06:42:50;;;;;;;9.43;3.70;;;;;;;-8.14;48.04;99669.03;5050007;28;20187;-62
2021/01/21 06:45:16;;;;;;;7.90;3.95;;;;;;;-7.67;48.70;99757.94;5050742;28;20041;-63
2021/01/21 06:47:41;;;;;;;9.20;3.90;;;;;;;-8.11;48.15;99674.22;5049884;28;20040;-65
2021/01/21 06:50:08;;;;;;;8.23;3.88;;;;;;;-7.65;48.29;99754.44;5050722;28;20047;-61
2021/01/21 06:52:37;;;;;;;10.35;4.07;;;;;;;-7.61;47.95;99746.63;5050466;28;20025;-63
2021/01/21 06:55:04;;;;;;;11.27;4.68;;;;;;;-7.56;48.26;99740.53;5050369;28;20496;-63
2021/01/21 06:57:36;;;;;;;11.05;4.85;;;;;;;-7.49;48.06;99741.31;5050632;28;20491;-56
2021/01/21 07:00:15;;;;;;;9.90;4.82;;;;;;;-7.44;47.91;99733.47;5050636;28;20039;-64
2021/01/21 07:02:46;;;;;;;10.50;4.30;;;;;;;-7.40;48.02;99741.25;5049841;28;20041;-64
2021/01/21 07:05:13;;;;;;;10.32;5.07;;;;;;;-7.36;48.14;99729.06;5050013;28;20033;-65
2021/01/21 07:08:08;;;;;;;10.95;5.07;;;;;;;-7.33;47.84;99720.38;5050320;28;20033;-69
2021/01/21 07:10:41;;;;;;;9.83;4.53;;;;;;;-7.28;48.08;99713.41;5048894;28;20041;-68
2021/01/21 07:13:13;;;;;;;11.75;5.32;;;;;;;-7.28;47.95;99710.78;5050239;28;20036;-70
2021/01/21 07:15:56;;;;;;;12.82;5.57;;;;;;;-7.23;47.97;99706.44;5049719;28;20040;-65
2021/01/21 07:18:24;;;;;;;10.65;5.30;;;;;;;-7.16;47.89;99708.09;5049589;28;20059;-67
2021/01/21 07:21:12;;;;;;;12.40;5.75;;;;;;;-7.16;48.28;99692.47;5049503;28;20098;-63
2021/01/21 07:23:53;;;;;;;12.27;5.53;;;;;;;-7.07;48.12;99694.13;5050083;28;20037;-65
2021/01/21 07:26:32;;;;;;;12.23;5.38;;;;;;;-7.10;48.30;99689.81;5049934;28;20043;-55
2021/01/21 07:29:05;;;;;;;13.32;5.60;;;;;;;-7.13;48.55;99687.22;5048070;28;20056;-53
2021/01/21 07:31:51;;;;;;;12.18;5.68;;;;;;;-7.10;49.19;99675.94;5048402;28;20524;-53
2021/01/21 07:34:31;;;;;;;14.57;6.57;;;;;;;-7.06;49.23;99685.44;5048345;28;20044;-62
2021/01/21 07:37:22;;;;;;;13.05;5.72;;;;;;;-6.98;49.53;99673.19;5050283;28;20041;-61
2021/01/21 07:40:04;;;;;;;13.90;6.00;;;;;;;-7.18;49.35;99631.78;5050283;28;20040;-57
2021/01/21 07:42:38;;;;;;;11.23;5.78;;;;;;;-6.95;49.68;99667.94;5049524;28;20051;-58
2021/01/21 07:45:07;;;;;;;11.57;6.05;;;;;;;-6.94;49.57;99658.41;5047829;28;20442;-62
2021/01/21 07:47:35;;;;;;;13.00;5.97;;;;;;;-6.97;49.68;99658.44;5049987;28;20037;-58
2021/01/21 07:50:19;;;;;;;13.65;6.40;;;;;;;-6.98;50.60;99652.38;5049549;28;20045;-60
2021/01/21 07:52:46;;;;;;;14.98;6.68;;;;;;;-6.98;50.32;99654.97;5049275;28;20041;-62
2021/01/21 07:55:13;;;;;;;15.23;6.78;;;;;;;-7.63;50.25;99538.63;5049970;28;20040;-62
2021/01/21 07:57:40;;;;;;;11.98;6.35;;;;;;;-6.87;51.29;99638.34;5049468;28;20037;-63
2021/01/21 08:00:10;;;;;;;18.20;5.95;;;;;;;-6.79;50.75;99645.19;5048944;28;20041;-61
2021/01/21 08:02:49;;;;;;;13.98;6.45;;;;;;;-7.06;50.80;99582.19;5055897;28;20029;-61
2021/01/21 08:05:20;;;;;;;13.75;6.85;;;;;;;-6.64;50.82;99627.66;5068921;28;20064;-57
2021/01/21 08:07:49;;;;;;;18.70;6.75;;;;;;;-6.62;51.15;99625.91;5067974;28;20086;-57
2021/01/21 08:10:21;;;;;;;16.13;7.35;;;;;;;-6.59;51.59;99612.81;5085164;28;20064;-62
2021/01/21 08:12:55;;;;;;;13.90;6.68;;;;;;;-6.46;51.07;99629.16;5077361;28;20459;-62
2021/01/21 08:15:22;;;;;;;19.50;7.43;;;;;;;-6.42;51.43;99624.75;5076804;28;20036;-63
2021/01/21 08:17:49;;;;;;;15.13;6.32;;;;;;;-6.39;51.47;99609.09;5085513;28;20187;-61
2021/01/21 08:20:17;;;;;;;15.13;6.90;;;;;;;-6.42;51.07;99591.75;5072215;28;20479;-61
2021/01/21 08:23:03;;;;;;;15.70;6.82;;;;;;;-6.23;51.60;99602.75;5084274;28;20025;-62
2021/01/21 08:25:38;;;;;;;16.02;7.00;;;;;;;-6.28;51.55;99595.91;5086679;28;20085;-62
2021/01/21 08:28:04;;;;;;;14.20;6.47;;;;;;;-6.32;51.61;99582.03;5076027;28;20401;-57
2021/01/21 08:30:30;;;;;;;16.40;7.07;;;;;;;-6.30;51.97;99595.91;5084948;28;20525;-62
2021/01/21 08:33:08;;;;;;;16.48;7.47;;;;;;;-6.38;51.65;99595.16;5083926;28;20040;-57
2021/01/21 08:35:37;;;;;;;14.82;6.85;;;;;;;-6.37;51.83;99595.16;5087354;28;20049;-55
2021/01/21 08:38:05;;;;;;;15.88;6.53;;;;;;;-6.42;51.67;99577.88;5075491;28;20036;-54
2021/01/21 08:40:32;;;;;;;15.30;6.93;;;;;;;-6.64;51.94;99547.78;5087258;28;20028;-55
2021/01/21 08:42:58;;;;;;;13.50;6.78;;;;;;;-6.37;51.88;99563.03;5082109;28;20036;-56
2021/01/21 08:45:29;;;;;;;14.13;6.65;;;;;;;-6.44;52.18;99577.88;5079512;28;20119;-60
2021/01/21 08:47:55;;;;;;;15.73;6.95;;;;;;;-6.38;52.41;99561.31;5088388;28;20859;-58
2021/01/21 08:50:21;;;;;;;19.90;8.23;;;;;;;-6.33;52.08;99563.84;5076268;28;20067;-57
2021/01/21 08:53:03;;;;;;;13.60;6.82;;;;;;;-6.36;52.19;99551.72;5085088;28;20549;-56
2021/01/21 08:55:42;;;;;;;12.82;5.78;;;;;;;-6.54;52.40;99519.00;5086011;28;20514;-51
2021/01/21 08:58:11;;;;;;;14.68;6.57;;;;;;;-6.47;52.80;99544.06;5075133;28;20050;-56
2021/01/21 09:00:38;;;;;;;15.68;6.40;;;;;;;-6.42;52.77;99538.78;5085825;28;20125;-56
2021/01/21 09:03:03;;;;;;;16.75;7.45;;;;;;;-6.55;52.76;99525.94;5082357;28;20028;-54
2021/01/21 09:05:31;;;;;;;15.85;7.85;;;;;;;-6.55;52.69;99518.13;5078125;28;20043;-53
2021/01/21 09:08:07;;;;;;;13.82;6.70;;;;;;;-6.67;52.87;99511.38;5088315;28;20038;-54
2021/01/21 09:10:42;;;;;;;15.88;7.45;;;;;;;-6.55;53.04;99496.47;5077709;28;20078;-55
2021/01/21 09:13:08;;;;;;;16.00;6.72;;;;;;;-6.42;53.05;99494.50;5081086;28;20502;-54
2021/01/21 09:15:54;;;;;;;17.80;8.02;;;;;;;-6.38;52.77;99489.25;5086137;28;20082;-58
2021/01/21 09:18:20;;;;;;;15.65;7.15;;;;;;;-6.38;52.94;99491.84;5058983;28;20577;-56
2021/01/21 09:20:46;;;;;;;14.50;7.32;;;;;;;-6.42;53.46;99474.53;5082356;28;20119;-55
2021/01/21 09:23:20;;;;;;;18.23;8.23;;;;;;;-6.47;53.45;99462.47;5071149;28;20044;-57
2021/01/21 09:25:47;;;;;;;15.65;7.57;;;;;;;-6.35;53.43;99468.34;5072350;28;20492;-58
2021/01/21 09:28:15;;;;;;;18.33;8.38;;;;;;;-6.33;53.47;99451.81;5074195;28;20131;-53
2021/01/21 09:30:41;;;;;;;17.58;8.00;;;;;;;-6.25;53.75;99447.31;5072400;28;20087;-55
2021/01/21 09:33:07;;;;;;;19.70;9.25;;;;;;;-6.75;53.90;99363.97;5065946;28;20119;-54
2021/01/21 09:35:33;;;;;;;23.77;9.95;;;;;;;-6.13;53.76;99460.16;5072283;28;20036;-56
2021/01/21 09:37:59;;;;;;;21.77;10.68;;;;;;;-6.09;53.71;99450.50;5071913;28;20028;-57
2021/01/21 09:40:30;;;;;;;20.17;9.25;;;;;;;-6.14;53.86;99434.09;5072838;28;20025;-54
2021/01/21 09:43:01;;;;;;;20.13;10.63;;;;;;;-6.08;53.70;99454.81;5073321;28;20032;-55
2021/01/21 09:45:28;;;;;;;26.13;10.88;;;;;;;-6.09;53.65;99456.59;5071710;28;20503;-54
2021/01/21 09:47:54;;;;;;;18.95;10.15;;;;;;;-6.60;53.76;99363.72;5072618;28;20388;-54
2021/01/21 09:50:21;;;;;;;23.80;10.52;;;;;;;-6.26;53.57;99435.19;5074060;28;20050;-59
2021/01/21 09:52:47;;;;;;;21.08;9.35;;;;;;;-6.27;53.79;99402.19;5068009;28;20036;-53
2021/01/21 09:55:13;;;;;;;18.60;9.27;;;;;;;-6.13;53.85;99436.69;5067521;28;20143;-55
2021/01/21 09:57:39;;;;;;;26.38;10.45;;;;;;;-6.05;53.80;99431.31;5068089;28;20036;-53
2021/01/21 10:00:07;;;;;;;17.45;9.57;;;;;;;-5.96;53.76;99422.44;5072698;28;20517;-53
2021/01/21 10:02:32;;;;;;;20.98;9.88;;;;;;;-5.91;53.84;99413.63;5070484;28;20111;-56
2021/01/21 10:04:58;;;;;;;23.88;10.35;;;;;;;-5.81;53.76;99409.09;5067630;28;20101;-50
2021/01/21 10:07:23;;;;;;;21.73;10.95;;;;;;;-5.86;54.06;99386.59;5072036;28;20036;-56
2021/01/21 10:09:49;;;;;;;20.85;9.48;;;;;;;-5.73;53.46;99415.91;5072329;28;20131;-62
2021/01/21 10:12:14;;;;;;;21.63;8.70;;;;;;;-5.66;53.47;99413.13;5073552;28;20078;-59
2021/01/21 10:14:40;;;;;;;21.23;9.93;;;;;;;-5.73;54.32;99408.06;5076685;28;20145;-55
2021/01/21 10:17:07;;;;;;;26.73;9.98;;;;;;;-5.71;54.17;99407.16;5084391;28;20023;-55
2021/01/21 10:19:33;;;;;;;24.75;9.85;;;;;;;-5.66;54.20;99415.75;5088710;28;20055;-54
2021/01/21 10:21:59;;;;;;;17.98;8.93;;;;;;;-5.59;54.09;99389.53;5086578;28;20058;-52
2021/01/21 10:24:24;;;;;;;15.77;8.40;;;;;;;-5.63;54.25;99379.16;5084230;28;20075;-54
2021/01/21 10:26:50;;;;;;;19.85;9.73;;;;;;;-5.74;53.89;99357.69;5076436;28;20439;-56
2021/01/21 10:29:16;;;;;;;19.98;9.57;;;;;;;-5.96;54.05;99318.16;5088321;28;20063;-61
2021/01/21 10:31:42;;;;;;;18.88;9.73;;;;;;;-5.54;53.99;99398.13;5077139;28;20073;-58
2021/01/21 10:34:08;;;;;;;23.05;11.23;;;;;;;-5.70;54.21;99376.72;5073113;28;20095;-56
2021/01/21 10:36:34;;;;;;;25.23;10.18;;;;;;;-5.74;53.84;99357.69;5070406;28;20032;-59
2021/01/21 10:39:00;;;;;;;19.08;8.68;;;;;;;-5.63;54.42;99371.34;5071830;28;20138;-51
2021/01/21 10:41:26;;;;;;;23.88;10.23;;;;;;;-5.64;53.94;99374.00;5071600;28;20071;-57
2021/01/21 10:43:51;;;;;;;21.42;10.30;;;;;;;-5.73;54.01;99367.22;5071415;28;20036;-57
2021/01/21 10:46:17;;;;;;;20.65;9.43;;;;;;;-6.09;54.50;99317.59;5072187;28;20036;-56
2021/01/21 10:48:42;;;;;;;21.73;10.35;;;;;;;-5.92;53.95;99346.75;5071750;28;20028;-57
2021/01/21 10:51:08;;;;;;;19.65;9.57;;;;;;;-5.92;54.50;99367.59;5071431;28;20036;-54
2021/01/21 10:53:33;;;;;;;21.38;8.93;;;;;;;-5.91;54.55;99364.09;5070879;28;20036;-54
2021/01/21 10:55:59;;;;;;;21.08;9.65;;;;;;;-6.00;54.35;99346.06;5072480;28;20033;-58
2021/01/21 10:58:24;;;;;;;23.42;10.73;;;;;;;-6.37;54.63;99282.53;5072082;28;20037;-53
2021/01/21 11:00:50;;;;;;;22.05;9.55;;;;;;;-5.97;54.23;99359.03;5070921;28;20047;-53
2021/01/21 11:03:16;;;;;;;23.13;10.25;;;;;;;-6.02;54.31;99340.03;5070560;28;20032;-56
2021/01/21 11:05:42;;;;;;;26.05;11.23;;;;;;;-5.94;54.45;99343.31;5070791;28;20408;-56
2021/01/21 11:08:08;;;;;;;23.98;10.60;;;;;;;-5.91;54.47;99353.66;5072770;28;20036;-54
2021/01/21 11:10:38;;;;;;;23.63;11.13;;;;;;;-6.03;54.25;99317.44;5069498;28;20032;-54
2021/01/21 11:13:04;;;;;;;23.92;10.90;;;;;;;-5.89;54.01;99330.19;5071009;28;20050;-54
2021/01/21 11:15:30;;;;;;;23.05;10.77;;;;;;;-6.35;54.17;99253.84;5070807;28;20032;-55
2021/01/21 11:17:55;;;;;;;28.90;11.50;;;;;;;-5.91;54.12;99327.59;5084593;28;20085;-55
2021/01/21 11:20:21;;;;;;;26.60;11.90;;;;;;;-5.92;54.15;99325.00;5085548;28;20111;-52
2021/01/21 11:22:47;;;;;;;22.45;11.05;;;;;;;-5.91;54.11;99322.38;5087523;28;20027;-53
2021/01/21 11:25:13;;;;;;;26.42;11.43;;;;;;;-5.93;54.01;99316.34;5086924;28;20035;-52
2021/01/21 11:27:39;;;;;;;23.90;11.32;;;;;;;-5.93;54.10;99316.34;5085739;28;20052;-51
2021/01/21 11:30:08;;;;;;;26.55;11.40;;;;;;;-6.02;53.97;99306.16;5085606;28;20422;-58